createdAt,value
2018-01-10T00:00:02.929Z,0.50
2018-01-10T00:02:30.487Z,0.40
2018-01-10T00:04:58.034Z,0.50
2018-01-10T00:07:25.573Z,0.50
2018-01-10T00:09:53.858Z,0.50
2018-01-10T00:12:21.407Z,0.60
2018-01-10T00:14:49.694Z,0.60
2018-01-10T00:17:18.028Z,0.60
2018-01-10T00:19:45.549Z,0.60
2018-01-10T00:22:13.084Z,0.60
2018-01-10T00:24:41.360Z,0.70
2018-01-10T00:27:09.662Z,0.80
2018-01-10T00:29:37.194Z,0.80
2018-01-10T00:32:04.737Z,0.90
2018-01-10T00:34:33.024Z,0.90
2018-01-10T00:37:00.574Z,0.90
2018-01-10T00:39:28.884Z,0.90
2018-01-10T00:41:56.412Z,0.90
2018-01-10T00:44:23.964Z,0.90
2018-01-10T00:46:52.248Z,0.90
2018-01-10T00:49:20.544Z,0.90
2018-01-10T00:51:48.065Z,0.90
2018-01-10T00:54:15.618Z,0.90
2018-01-10T00:56:43.147Z,0.90
2018-01-10T00:59:10.688Z,0.90
2018-01-10T01:01:38.245Z,0.90
2018-01-10T01:04:05.798Z,1.00
2018-01-10T01:06:33.316Z,1.00
2018-01-10T01:09:00.860Z,1.00
2018-01-10T01:11:28.382Z,1.10
2018-01-10T01:13:55.933Z,1.10
2018-01-10T01:16:23.455Z,1.10
2018-01-10T01:18:51.769Z,1.20
2018-01-10T01:21:19.295Z,1.10
2018-01-10T01:23:46.860Z,1.20
2018-01-10T01:26:15.148Z,1.20
2018-01-10T01:28:42.689Z,1.20
2018-01-10T01:31:10.979Z,1.20
2018-01-10T01:33:38.520Z,1.20
2018-01-10T01:36:06.812Z,1.20
2018-01-10T01:38:34.354Z,1.10
2018-01-10T01:41:02.681Z,1.20
2018-01-10T01:43:30.223Z,1.20
2018-01-10T01:45:57.740Z,1.20
2018-01-10T01:48:25.296Z,1.20
2018-01-10T01:50:52.816Z,1.20
2018-01-10T01:53:20.384Z,1.20
2018-01-10T01:55:47.918Z,1.20
2018-01-10T01:58:15.467Z,1.20
2018-01-10T02:00:42.987Z,1.20
2018-01-10T02:03:11.301Z,1.20
2018-01-10T02:05:38.824Z,1.20
2018-01-10T02:08:07.137Z,1.20
2018-01-10T02:10:34.657Z,1.20
2018-01-10T02:13:02.208Z,1.20
2018-01-10T02:15:29.728Z,1.30
2018-01-10T02:17:57.266Z,1.30
2018-01-10T02:20:24.797Z,1.20
2018-01-10T02:22:53.112Z,1.30
2018-01-10T02:25:20.640Z,1.20
2018-01-10T02:27:48.185Z,1.30
2018-01-10T02:30:15.741Z,1.20
2018-01-10T02:32:43.290Z,1.20
2018-01-10T02:35:10.812Z,1.20
2018-01-10T02:37:38.364Z,1.20
2018-01-10T02:40:05.890Z,1.20
2018-01-10T02:42:38.291Z,1.10
2018-01-10T02:45:06.054Z,1.10
2018-01-10T02:47:33.577Z,1.00
2018-01-10T02:50:01.896Z,1.00
2018-01-10T02:52:29.411Z,1.00
2018-01-10T02:54:56.973Z,1.10
2018-01-10T02:57:25.260Z,1.10
2018-01-10T02:59:52.804Z,1.10
2018-01-10T03:02:21.092Z,1.10
2018-01-10T03:04:48.640Z,1.10
2018-01-10T03:07:16.927Z,1.10
2018-01-10T03:09:44.464Z,1.10
2018-01-10T03:12:11.982Z,1.10
2018-01-10T03:14:39.523Z,1.10
2018-01-10T03:17:07.054Z,1.10
2018-01-10T03:19:35.372Z,1.10
2018-01-10T03:22:02.896Z,1.10
2018-01-10T03:24:30.436Z,1.10
2018-01-10T03:26:58.727Z,1.10
2018-01-10T03:29:26.264Z,1.10
2018-01-10T03:31:53.780Z,1.10
2018-01-10T03:34:21.336Z,1.10
2018-01-10T03:36:48.871Z,1.10
2018-01-10T03:39:16.426Z,1.10
2018-01-10T03:41:43.940Z,1.10
2018-01-10T03:44:11.483Z,1.20
2018-01-10T03:46:39.056Z,1.10
2018-01-10T03:49:06.571Z,1.20
2018-01-10T03:51:34.098Z,1.10
2018-01-10T03:54:02.413Z,1.10
2018-01-10T03:56:29.952Z,1.00
2018-01-10T03:58:57.512Z,1.00
2018-01-10T04:01:25.039Z,1.00
2018-01-10T04:03:52.587Z,1.10
2018-01-10T04:06:20.117Z,1.10
2018-01-10T04:08:47.657Z,1.10
2018-01-10T04:11:15.178Z,1.10
2018-01-10T04:13:43.494Z,1.00
2018-01-10T04:16:11.021Z,1.00
2018-01-10T04:18:39.341Z,1.00
2018-01-10T04:21:06.879Z,1.00
2018-01-10T04:23:34.420Z,1.00
2018-01-10T04:26:01.948Z,1.00
2018-01-10T04:28:29.480Z,1.00
2018-01-10T04:30:56.996Z,1.00
2018-01-10T04:33:24.530Z,1.10
2018-01-10T04:35:52.048Z,1.00
2018-01-10T04:38:19.573Z,1.10
2018-01-10T04:40:47.121Z,1.10
2018-01-10T04:43:14.644Z,1.10
2018-01-10T04:45:42.189Z,1.10
2018-01-10T04:48:09.709Z,1.00
2018-01-10T04:50:37.267Z,1.00
2018-01-10T04:53:04.784Z,1.10
2018-01-10T04:55:32.324Z,1.00
2018-01-10T04:57:59.836Z,1.00
2018-01-10T05:00:27.378Z,1.00
2018-01-10T05:02:55.664Z,1.00
2018-01-10T05:05:23.973Z,1.00
2018-01-10T05:07:51.514Z,1.00
2018-01-10T05:10:19.052Z,0.90
2018-01-10T05:12:47.335Z,1.00
2018-01-10T05:15:15.648Z,1.00
2018-01-10T05:17:43.177Z,1.00
2018-01-10T05:20:10.717Z,1.00
2018-01-10T05:22:38.236Z,1.00
2018-01-10T05:25:05.785Z,1.00
2018-01-10T05:27:33.304Z,1.00
2018-01-10T05:30:00.864Z,1.00
2018-01-10T05:32:28.390Z,1.00
2018-01-10T05:34:55.933Z,1.00
2018-01-10T05:37:23.456Z,1.00
2018-01-10T05:39:51.003Z,1.00
2018-01-10T05:42:18.527Z,1.00
2018-01-10T05:44:46.832Z,0.90
2018-01-10T05:47:14.353Z,0.80
2018-01-10T05:49:41.892Z,0.80
2018-01-10T05:52:09.413Z,0.80
2018-01-10T05:54:36.954Z,0.80
2018-01-10T05:57:05.237Z,0.80
2018-01-10T05:59:32.785Z,0.80
2018-01-10T06:02:01.068Z,0.80
2018-01-10T06:04:28.620Z,0.80
2018-01-10T06:06:56.905Z,0.80
2018-01-10T06:09:24.428Z,0.80
2018-01-10T06:11:51.961Z,0.80
2018-01-10T06:14:19.491Z,0.80
2018-01-10T06:16:47.029Z,0.80
2018-01-10T06:19:15.318Z,0.80
2018-01-10T06:21:42.861Z,0.80
2018-01-10T06:24:10.378Z,0.80
2018-01-10T06:26:37.929Z,0.80
2018-01-10T06:29:05.441Z,0.80
2018-01-10T06:31:33.745Z,0.80
2018-01-10T06:34:02.025Z,0.80
2018-01-10T06:36:29.567Z,0.70
2018-01-10T06:38:57.097Z,0.80
2018-01-10T06:41:24.645Z,0.70
2018-01-10T06:43:52.164Z,0.70
2018-01-10T06:46:19.772Z,0.70
2018-01-10T06:48:48.058Z,0.70
2018-01-10T06:51:16.374Z,0.70
2018-01-10T06:53:43.902Z,0.70
2018-01-10T06:56:11.448Z,0.70
2018-01-10T06:58:39.733Z,0.70
2018-01-10T07:01:07.286Z,0.70
2018-01-10T07:03:34.821Z,0.70
2018-01-10T07:06:02.371Z,0.70
2018-01-10T07:08:29.912Z,0.70
2018-01-10T07:10:57.508Z,0.60
2018-01-10T07:13:25.855Z,0.50
2018-01-10T07:15:53.380Z,0.50
2018-01-10T07:18:20.926Z,0.40
2018-01-10T07:20:48.444Z,0.40
2018-01-10T07:23:15.980Z,0.40
2018-01-10T07:25:43.503Z,0.40
2018-01-10T07:28:11.054Z,0.40
2018-01-10T07:30:38.585Z,0.40
2018-01-10T07:33:06.901Z,0.40
2018-01-10T07:35:34.422Z,0.40
2018-01-10T07:38:01.997Z,0.40
2018-01-10T07:40:30.283Z,0.40
2018-01-10T07:42:57.820Z,0.40
2018-01-10T07:45:26.109Z,0.40
2018-01-10T07:47:53.645Z,0.40
2018-01-10T07:50:21.194Z,0.40
2018-01-10T07:52:48.710Z,0.40
2018-01-10T07:55:16.244Z,0.40
2018-01-10T07:57:44.542Z,0.40
2018-01-10T08:00:12.084Z,0.40
2018-01-10T08:02:39.609Z,0.40
2018-01-10T08:05:07.161Z,0.50
2018-01-10T08:07:34.685Z,0.50
2018-01-10T08:10:02.229Z,0.50
2018-01-10T08:12:29.767Z,0.50
2018-01-10T08:14:57.322Z,0.50
2018-01-10T08:17:26.210Z,0.60
2018-01-10T08:19:54.521Z,0.70
2018-01-10T08:22:22.036Z,0.60
2018-01-10T08:24:50.338Z,0.70
2018-01-10T08:27:17.852Z,0.60
2018-01-10T08:29:45.390Z,0.80
2018-01-10T08:32:12.913Z,0.70
2018-01-10T08:34:40.461Z,0.80
2018-01-10T08:37:08.741Z,0.90
2018-01-10T08:39:36.303Z,0.90
2018-01-10T08:42:03.818Z,0.90
2018-01-10T08:44:31.332Z,1.00
2018-01-10T08:46:58.877Z,1.00
2018-01-10T08:49:26.412Z,1.10
2018-01-10T08:51:54.709Z,0.90
2018-01-10T08:54:22.229Z,0.90
2018-01-10T08:56:49.778Z,0.90
2018-01-10T08:59:17.301Z,0.90
2018-01-10T09:01:44.848Z,0.90
2018-01-10T09:04:12.369Z,1.00
2018-01-10T09:06:39.920Z,1.10
2018-01-10T09:09:07.449Z,1.00
2018-01-10T09:11:34.993Z,1.00
2018-01-10T09:14:02.513Z,1.10
2018-01-10T09:16:30.818Z,1.30
2018-01-10T09:18:58.337Z,1.30
2018-01-10T09:21:26.644Z,1.50
2018-01-10T09:23:54.165Z,1.50
2018-01-10T09:26:21.712Z,1.60
2018-01-10T09:28:49.237Z,1.60
2018-01-10T09:31:16.780Z,1.70
2018-01-10T09:33:44.306Z,1.80
2018-01-10T09:36:12.613Z,1.90
2018-01-10T09:38:40.146Z,1.90
2018-01-10T09:41:08.452Z,2.00
2018-01-10T09:43:35.973Z,2.00
2018-01-10T09:46:03.519Z,2.00
2018-01-10T09:48:31.056Z,2.10
2018-01-10T09:50:58.592Z,2.10
2018-01-10T09:53:26.114Z,2.20
2018-01-10T09:55:54.416Z,2.20
2018-01-10T09:58:21.928Z,2.20
2018-01-10T10:00:49.462Z,2.20
2018-01-10T10:03:17.022Z,2.20
2018-01-10T10:05:44.560Z,2.20
2018-01-10T10:08:12.088Z,2.30
2018-01-10T10:10:40.389Z,2.50
2018-01-10T10:13:07.921Z,2.40
2018-01-10T10:15:36.234Z,2.80
2018-01-10T10:18:03.763Z,2.80
2018-01-10T10:20:32.091Z,3.00
2018-01-10T10:22:59.622Z,3.00
2018-01-10T10:25:27.159Z,3.00
2018-01-10T10:27:54.702Z,3.00
2018-01-10T10:30:22.985Z,2.80
2018-01-10T10:32:51.293Z,2.90
2018-01-10T10:35:18.813Z,2.90
2018-01-10T10:37:47.143Z,3.00
2018-01-10T10:40:14.674Z,3.00
2018-01-10T10:42:42.213Z,3.10
2018-01-10T10:45:09.735Z,3.10
2018-01-10T10:47:37.277Z,3.10
2018-01-10T10:50:04.802Z,3.20
2018-01-10T10:52:32.340Z,3.30
2018-01-10T10:55:00.630Z,3.40
2018-01-10T10:57:28.170Z,3.40
2018-01-10T10:59:56.461Z,3.40
2018-01-10T11:02:24.020Z,3.40
2018-01-10T11:04:51.562Z,3.30
2018-01-10T11:07:19.876Z,3.50
2018-01-10T11:09:48.241Z,3.40
2018-01-10T11:12:15.775Z,3.40
2018-01-10T11:14:44.060Z,3.40
2018-01-10T11:17:12.361Z,3.40
2018-01-10T11:19:39.897Z,3.40
2018-01-10T11:22:08.205Z,3.10
2018-01-10T11:24:35.761Z,3.10
2018-01-10T11:27:03.307Z,3.00
2018-01-10T11:29:30.838Z,3.10
2018-01-10T11:31:58.448Z,3.10
2018-01-10T11:34:25.974Z,3.10
2018-01-10T11:36:53.514Z,3.20
2018-01-10T11:39:21.817Z,3.20
2018-01-10T11:41:49.362Z,3.20
2018-01-10T11:44:16.881Z,3.30
2018-01-10T11:46:44.428Z,3.40
2018-01-10T11:49:11.953Z,3.40
2018-01-10T11:51:39.503Z,3.30
2018-01-10T11:54:07.030Z,3.50
2018-01-10T11:56:35.378Z,3.90
2018-01-10T11:59:02.897Z,3.80
2018-01-10T12:01:30.456Z,4.10
2018-01-10T12:03:57.982Z,4.10
2018-01-10T12:06:26.288Z,4.30
2018-01-10T12:08:53.813Z,4.30
2018-01-10T12:11:21.355Z,4.40
2018-01-10T12:13:48.881Z,4.50
2018-01-10T12:16:16.415Z,4.50
2018-01-10T12:18:43.972Z,4.50
2018-01-10T12:21:11.509Z,4.60
2018-01-10T12:23:39.829Z,4.70
2018-01-10T12:26:07.344Z,4.70
2018-01-10T12:28:34.892Z,4.60
2018-01-10T12:31:02.422Z,4.60
2018-01-10T12:33:29.960Z,4.50
2018-01-10T12:35:57.476Z,4.60
2018-01-10T12:38:25.781Z,4.60
2018-01-10T12:40:53.297Z,4.60
2018-01-10T12:43:20.845Z,4.70
2018-01-10T12:45:48.366Z,4.40
2018-01-10T12:48:15.905Z,4.30
2018-01-10T12:50:43.441Z,4.20
2018-01-10T12:53:10.992Z,4.30
2018-01-10T12:55:38.512Z,4.10
2018-01-10T12:58:06.065Z,4.10
2018-01-10T13:00:33.597Z,4.10
2018-01-10T13:03:01.146Z,3.80
2018-01-10T13:05:29.430Z,3.90
2018-01-10T13:07:57.743Z,3.80
2018-01-10T13:10:25.292Z,3.80
2018-01-10T13:12:52.874Z,3.80
2018-01-10T13:15:20.398Z,3.80
2018-01-10T13:17:47.969Z,3.70
2018-01-10T13:20:15.484Z,3.80
2018-01-10T13:22:43.813Z,4.10
2018-01-10T13:25:11.347Z,4.10
2018-01-10T13:27:38.894Z,4.20
2018-01-10T13:30:06.422Z,4.10
2018-01-10T13:32:33.971Z,4.10
2018-01-10T13:35:01.488Z,4.10
2018-01-10T13:37:29.044Z,4.30
2018-01-10T13:39:56.576Z,4.20
2018-01-10T13:42:24.137Z,4.30
2018-01-10T13:44:51.665Z,4.40
2018-01-10T13:47:19.204Z,4.40
2018-01-10T13:49:46.731Z,4.40
2018-01-10T13:52:14.281Z,4.50
2018-01-10T13:54:41.813Z,4.40
2018-01-10T13:57:10.194Z,4.30
2018-01-10T13:59:38.484Z,4.20
2018-01-10T14:02:06.785Z,4.10
2018-01-10T14:04:34.329Z,4.10
2018-01-10T14:07:01.853Z,4.10
2018-01-10T14:09:29.405Z,4.00
2018-01-10T14:11:56.930Z,4.00
2018-01-10T14:14:24.482Z,4.00
2018-01-10T14:16:52.008Z,3.90
2018-01-10T14:19:20.318Z,3.80
2018-01-10T14:21:47.845Z,3.80
2018-01-10T14:24:15.405Z,3.90
2018-01-10T14:26:42.930Z,3.80
2018-01-10T14:29:10.473Z,3.80
2018-01-10T14:31:37.992Z,3.80
2018-01-10T14:34:05.539Z,3.70
2018-01-10T14:36:33.069Z,3.70
2018-01-10T14:39:00.626Z,3.70
2018-01-10T14:41:28.149Z,3.70
2018-01-10T14:43:55.676Z,3.70
2018-01-10T14:46:23.208Z,3.70
2018-01-10T14:48:51.501Z,3.60
2018-01-10T14:51:19.050Z,3.60
2018-01-10T14:53:47.334Z,3.60
2018-01-10T14:56:15.649Z,3.50
2018-01-10T14:58:43.179Z,3.50
2018-01-10T15:01:10.713Z,3.40
2018-01-10T15:03:38.997Z,3.40
2018-01-10T15:06:07.301Z,3.40
2018-01-10T15:08:34.825Z,3.30
2018-01-10T15:11:03.133Z,3.30
2018-01-10T15:13:30.665Z,3.30
2018-01-10T15:15:58.985Z,3.20
2018-01-10T15:18:26.533Z,3.20
2018-01-10T15:20:54.078Z,3.20
2018-01-10T15:23:21.601Z,3.20
2018-01-10T15:25:49.157Z,3.10
2018-01-10T15:28:16.690Z,3.10
2018-01-10T15:30:44.239Z,3.00
2018-01-10T15:33:11.752Z,3.00
2018-01-10T15:35:40.070Z,2.90
2018-01-10T15:38:07.593Z,2.90
2018-01-10T15:40:35.136Z,2.80
2018-01-10T15:43:03.422Z,2.80
2018-01-10T15:45:30.975Z,2.80
2018-01-10T15:47:59.264Z,2.60
2018-01-10T15:50:26.801Z,2.60
2018-01-10T15:52:55.086Z,2.60
2018-01-10T15:55:23.392Z,2.60
2018-01-10T15:57:50.912Z,2.60
2018-01-10T16:00:19.232Z,2.50
2018-01-10T16:02:46.786Z,2.50
2018-01-10T16:05:14.336Z,2.60
2018-01-10T16:07:41.867Z,2.60
2018-01-10T16:10:10.185Z,2.60
2018-01-10T16:12:37.704Z,2.60
2018-01-10T16:15:06.010Z,2.70
2018-01-10T16:17:33.558Z,2.70
2018-01-10T16:20:01.076Z,2.60
2018-01-10T16:22:28.628Z,2.70
2018-01-10T16:24:56.145Z,2.70
2018-01-10T16:27:23.686Z,2.70
2018-01-10T16:29:51.210Z,2.60
2018-01-10T16:32:18.740Z,2.60
2018-01-10T16:34:46.286Z,2.60
2018-01-10T16:37:13.836Z,2.70
2018-01-10T16:39:41.357Z,2.70
2018-01-10T16:42:09.664Z,2.70
2018-01-10T16:44:37.187Z,2.60
2018-01-10T16:47:05.508Z,2.70
2018-01-10T16:49:33.086Z,2.70
2018-01-10T16:52:00.624Z,2.70
2018-01-10T16:54:28.143Z,2.70
2018-01-10T16:56:57.516Z,2.70
2018-01-10T16:59:25.829Z,2.70
2018-01-10T17:01:54.152Z,2.80
2018-01-10T17:04:21.685Z,2.70
2018-01-10T17:06:49.220Z,2.80
2018-01-10T17:09:17.517Z,2.80
2018-01-10T17:11:45.842Z,2.80
2018-01-10T17:14:13.365Z,2.80
2018-01-10T17:16:40.918Z,2.90
2018-01-10T17:19:08.441Z,2.90
2018-01-10T17:21:36.813Z,2.90
2018-01-10T17:24:04.355Z,2.90
2018-01-10T17:26:32.683Z,2.90
2018-01-10T17:29:00.197Z,2.90
2018-01-10T17:31:27.741Z,2.90
2018-01-10T17:33:55.265Z,2.90
2018-01-10T17:36:22.814Z,2.90
2018-01-10T17:38:50.349Z,2.90
2018-01-10T17:41:17.889Z,2.90
2018-01-10T17:43:45.415Z,2.80
2018-01-10T17:46:12.972Z,2.80
2018-01-10T17:48:40.492Z,2.80
2018-01-10T17:51:08.032Z,2.80
2018-01-10T17:53:36.318Z,2.70
2018-01-10T17:56:04.624Z,2.70
2018-01-10T17:58:32.149Z,2.70
2018-01-10T18:01:00.455Z,2.70
2018-01-10T18:03:27.985Z,2.60
2018-01-10T18:05:56.283Z,2.60
2018-01-10T18:08:23.803Z,2.60
2018-01-10T18:10:51.341Z,2.60
2018-01-10T18:13:18.857Z,2.60
2018-01-10T18:15:46.382Z,2.60
2018-01-10T18:18:14.695Z,2.60
2018-01-10T18:20:42.227Z,2.60
2018-01-10T18:23:10.543Z,2.50
2018-01-10T18:25:38.066Z,2.50
2018-01-10T18:28:06.379Z,2.60
2018-01-10T18:30:33.916Z,2.50
2018-01-10T18:33:01.453Z,2.50
2018-01-10T18:35:29.736Z,2.60
2018-01-10T18:37:58.046Z,2.60
2018-01-10T18:40:25.572Z,2.60
2018-01-10T18:42:53.126Z,2.60
2018-01-10T18:45:20.658Z,2.60
2018-01-10T18:47:48.218Z,2.60
2018-01-10T18:50:16.522Z,2.60
2018-01-10T18:52:44.089Z,2.60
2018-01-10T18:55:11.764Z,2.60
2018-01-10T18:57:39.308Z,2.60
2018-01-10T19:00:06.847Z,2.60
2018-01-10T19:02:35.149Z,2.50
2018-01-10T19:05:02.669Z,2.50
2018-01-10T19:07:30.209Z,2.50
2018-01-10T19:09:57.728Z,2.50
2018-01-10T19:12:25.265Z,2.60
2018-01-10T19:14:53.549Z,2.60
2018-01-10T19:17:21.090Z,2.60
2018-01-10T19:19:49.377Z,2.60
2018-01-10T19:22:17.674Z,2.60
2018-01-10T19:24:45.280Z,2.60
2018-01-10T19:27:12.825Z,2.60
2018-01-10T19:29:40.352Z,2.60
2018-01-10T19:32:07.898Z,2.60
2018-01-10T19:34:35.431Z,2.60
2018-01-10T19:37:03.750Z,2.60
2018-01-10T19:39:31.278Z,2.60
2018-01-10T19:41:58.823Z,2.60
2018-01-10T19:44:27.121Z,2.60
2018-01-10T19:46:54.672Z,2.60
2018-01-10T19:49:22.205Z,2.60
2018-01-10T19:51:50.530Z,2.60
2018-01-10T19:54:18.100Z,2.60
2018-01-10T19:56:45.656Z,2.60
2018-01-10T19:59:13.197Z,2.60
2018-01-10T20:01:40.752Z,2.60
2018-01-10T20:04:08.282Z,2.60
2018-01-10T20:06:35.853Z,2.50
2018-01-10T20:09:04.137Z,2.50
2018-01-10T20:11:31.664Z,2.50
2018-01-10T20:13:59.204Z,2.50
2018-01-10T20:16:26.743Z,2.50
2018-01-10T20:18:54.286Z,2.50
2018-01-10T20:21:21.800Z,2.50
2018-01-10T20:23:49.349Z,2.50
2018-01-10T20:26:16.866Z,2.40
2018-01-10T20:28:44.419Z,2.30
2018-01-10T20:31:11.936Z,2.30
2018-01-10T20:33:40.246Z,2.20
2018-01-10T20:36:07.776Z,2.20
2018-01-10T20:38:36.082Z,2.30
2018-01-10T20:41:03.609Z,2.30
2018-01-10T20:43:31.933Z,2.20
2018-01-10T20:45:59.621Z,2.20
2018-01-10T20:48:27.173Z,2.20
2018-01-10T20:50:54.846Z,2.20
2018-01-10T20:53:22.410Z,2.10
2018-01-10T20:55:50.062Z,2.10
2018-01-10T20:58:17.614Z,2.10
2018-01-10T21:00:45.204Z,2.10
2018-01-10T21:03:13.654Z,2.00
2018-01-10T21:05:41.257Z,1.90
2018-01-10T21:08:09.560Z,1.70
2018-01-10T21:10:37.148Z,1.80
2018-01-10T21:13:04.694Z,1.70
2018-01-10T21:15:32.285Z,1.70
2018-01-10T21:17:59.852Z,1.70
2018-01-10T21:20:28.148Z,1.60
2018-01-10T21:22:55.697Z,1.60
2018-01-10T21:25:24.013Z,1.50
2018-01-10T21:27:51.561Z,1.50
2018-01-10T21:30:19.087Z,1.50
2018-01-10T21:32:47.526Z,1.60
2018-01-10T21:35:15.050Z,1.50
2018-01-10T21:37:42.769Z,1.50
2018-01-10T21:40:10.304Z,1.50
2018-01-10T21:42:37.912Z,1.50
2018-01-10T21:45:06.262Z,1.50
2018-01-10T21:47:33.969Z,1.50
2018-01-10T21:50:01.543Z,1.60
2018-01-10T21:52:29.221Z,1.60
2018-01-10T21:54:56.759Z,1.60
2018-01-10T21:57:24.605Z,1.60
2018-01-10T21:59:52.334Z,1.50
2018-01-10T22:02:20.022Z,1.60
2018-01-10T22:04:47.574Z,1.60
2018-01-10T22:07:15.865Z,1.50
2018-01-10T22:09:43.424Z,1.50
2018-01-10T22:12:10.955Z,1.60
2018-01-10T22:14:39.270Z,1.60
2018-01-10T22:17:06.865Z,1.60
2018-01-10T22:19:34.537Z,1.60
2018-01-10T22:22:02.114Z,1.60
2018-01-10T22:24:29.710Z,1.60
2018-01-10T22:26:57.269Z,1.60
2018-01-10T22:29:24.885Z,1.60
2018-01-10T22:31:52.416Z,1.60
2018-01-10T22:34:19.958Z,1.70
2018-01-10T22:36:47.588Z,1.70
2018-01-10T22:39:15.184Z,1.70
2018-01-10T22:41:42.752Z,1.80
2018-01-10T22:44:10.272Z,1.80
2018-01-10T22:46:37.848Z,1.70
2018-01-10T22:49:05.386Z,1.70
2018-01-10T22:51:32.981Z,1.70
2018-01-10T22:54:00.542Z,1.70
2018-01-10T22:56:28.093Z,1.60
2018-01-10T22:58:55.646Z,1.60
2018-01-10T23:01:23.239Z,1.60
2018-01-10T23:03:50.902Z,1.60
2018-01-10T23:06:18.572Z,1.60
2018-01-10T23:08:46.097Z,1.60
2018-01-10T23:11:13.623Z,1.50
2018-01-10T23:13:41.178Z,1.60
2018-01-10T23:16:08.697Z,1.50
2018-01-10T23:18:36.256Z,1.50
2018-01-10T23:21:03.785Z,1.50
2018-01-10T23:23:31.322Z,1.50
2018-01-10T23:25:58.856Z,1.60
2018-01-10T23:28:26.400Z,1.50
2018-01-10T23:30:53.981Z,1.50
2018-01-10T23:33:21.514Z,1.50
2018-01-10T23:35:49.045Z,1.50
2018-01-10T23:38:16.594Z,1.50
2018-01-10T23:40:44.116Z,1.50
2018-01-10T23:43:11.668Z,1.50
2018-01-10T23:45:39.952Z,1.50
2018-01-10T23:48:07.490Z,1.50
2018-01-10T23:50:35.033Z,1.50
2018-01-10T23:53:02.577Z,1.50
2018-01-10T23:55:30.108Z,1.50
2018-01-10T23:57:57.680Z,1.60
